Terminal Aerodrome Forecast
Issued by NWS

Home | Current Version | Previous Version | Text Only | Print | Product List | Glossary On
Versions: 1 2 3 4 5 6 7 8 9 10 11 12 13 14 15 16 17 18 19 20 21 22
000
FTUS41 KGYX 261124
TAFLEB
TAF
KLEB 261124Z 2612/2712 VRB03KT P6SM SCT035 OVC100
     FM261700 36005KT 2SM -SN BR OVC015
     FM262000 36008G16KT 1/2SM SN FZFG OVC006
     FM270200 35010G18KT 3SM -SN BLSN BR OVC012
     FM271000 34007KT 5SM -SHSN BR BKN025=

USA.gov is the U.S. government's official web portal to all federal, state and local government web resources and services.